スィクティフカル の空港の天気 - METARとTAF

Syktyvkar ( UUYY / SCW ) - ロシア スィクティフカル
飛行場実況気象(Metar)
観測時間01/20 05:00 MSK (01/20 02:00 UTC)
風向・風速南南西 2m/s
視程10km以上
天気現象
全天の4割程度の雲 雲底高度 790m
気温-18℃
湿度92%
気圧1004hPa
METARUUYY 200200Z 21002MPS 9999 SCT026 M18/M19 Q1004 R18/420143 NOSIG RMK QFE744/0992
過去の天気等 Google飛行場航空写真 Wunderground天気予報

過去48時間のMETAR

飛行場予報(TAF)
発表時間: 1/20 02:00 MSK (1/19 23:00 UTC)
予報対象時間: 20日3時 MSK ~ 21日3時 MSK
風向・風速南西 3m/s
視程3100m
天気現象弱い雪 もや
全天の8割程度の雲 雲底高度 340m
20日3時 MSK ~ 20日6時 MSK に一時的に
視程300m
天気現象氷霧
全天の8割程度の雲 雲底高度 90m
20日6時 MSK ~ 20日9時 MSK に一時的に
視程2100m
天気現象弱いしゅう雪 もや
全天の8割程度の雲 雲底高度 210m
全天の8割程度の積乱雲 雲底高度 370m
TAF UUYY 192300Z 2000/2024 22003MPS 3100 -SN BR BKN011
TEMPO 2000/2003 0300 FZFG BKN003
TEMPO 2003/2006 2100 -SHSN BR BKN007 BKN012CB